Time;durP1;ratioP1;P1;durP2;ratioP2;P2;SDS_P1;SDS_P2;PMS_P1;PMS_P2;Temp;Humidity;BMP_temperature;BMP_pressure;BME280_temperature;BME280_humidity;BME280_pressure;Samples;Min_cycle;Max_cycle;Signal;HPM_P1;HPM_P2
2022/12/02 00:02:31;;;;;;;3.17;2.90;;;;;;;0.46;100.00;100525.13;6126716;23;20085;-77
2022/12/02 00:05:04;;;;;;;3.40;3.17;;;;;;;0.33;100.00;100518.19;6126920;23;20029;-77
2022/12/02 00:07:30;;;;;;;5.90;3.33;;;;;;;0.33;100.00;100518.19;6125794;23;20060;-77
2022/12/02 00:09:55;;;;;;;1.95;1.85;;;;;;;0.38;100.00;100523.38;6127616;23;20052;-77
2022/12/02 00:12:24;;;;;;;2.67;2.47;;;;;;;0.42;100.00;100526.97;6101856;23;20076;-77
2022/12/02 00:14:59;;;;;;;2.17;2.08;;;;;;;0.37;100.00;100527.25;6103206;23;20014;-77
2022/12/02 00:17:26;;;;;;;4.53;4.22;;;;;;;0.36;100.00;100526.47;6127450;23;20076;-77
2022/12/02 00:19:52;;;;;;;4.47;3.83;;;;;;;0.30;100.00;100518.91;6127026;23;20013;-77
2022/12/02 00:22:17;;;;;;;8.30;3.00;;;;;;;0.29;100.00;100515.38;6151321;23;20025;-77
2022/12/02 00:24:43;;;;;;;1.88;1.77;;;;;;;0.29;100.00;100514.59;6153202;23;20009;-77
2022/12/02 00:27:08;;;;;;;3.90;3.60;;;;;;;0.25;100.00;100521.91;6153048;23;20018;-77
2022/12/02 00:29:34;;;;;;;5.47;4.22;;;;;;;0.27;100.00;100523.16;6151750;23;20072;-77
2022/12/02 00:31:59;;;;;;;3.22;3.03;;;;;;;0.28;100.00;100518.50;6149987;23;20348;-77
2022/12/02 00:34:25;;;;;;;0.77;0.77;;;;;;;0.26;100.00;100518.84;6151670;23;20137;-77
2022/12/02 00:36:50;;;;;;;1.33;1.23;;;;;;;0.31;100.00;100520.50;6150646;23;20013;-77
2022/12/02 00:39:16;;;;;;;4.70;4.25;;;;;;;0.19;100.00;100498.78;6152023;23;20162;-77
2022/12/02 00:41:41;;;;;;;11.07;4.53;;;;;;;0.21;100.00;100504.66;6126366;23;20510;-77
2022/12/02 00:46:51;;;;;;;3.17;2.92;;;;;;;0.10;100.00;100495.47;6124643;23;20440;-77
2022/12/02 00:49:17;;;;;;;6.90;4.72;;;;;;;0.16;100.00;100499.50;6151011;23;20016;-76
2022/12/02 00:51:44;;;;;;;4.22;3.92;;;;;;;0.06;100.00;100480.97;6139109;23;20068;-77
2022/12/02 00:54:10;;;;;;;1.67;1.58;;;;;;;0.07;100.00;100488.00;6151860;23;20383;-79
2022/12/02 00:56:35;;;;;;;4.82;3.90;;;;;;;0.12;100.00;100483.06;6150067;23;20096;-76
2022/12/02 00:59:01;;;;;;;3.10;2.55;;;;;;;0.12;100.00;100487.72;6150046;23;20357;-76
2022/12/02 01:01:27;;;;;;;4.40;4.10;;;;;;;0.14;100.00;100488.16;6151267;23;20009;-77
2022/12/02 01:03:53;;;;;;;5.55;5.03;;;;;;;0.15;100.00;100493.25;6150903;23;20017;-76
2022/12/02 01:06:19;;;;;;;2.13;1.80;;;;;;;0.12;100.00;100493.19;6149939;23;20010;-77
2022/12/02 01:08:46;;;;;;;5.80;4.28;;;;;;;0.08;100.00;100486.84;6149588;23;20048;-77
2022/12/02 01:11:12;;;;;;;5.22;1.75;;;;;;;0.14;100.00;100496.34;6149785;23;20017;-77
2022/12/02 01:13:39;;;;;;;2.22;2.13;;;;;;;0.15;100.00;100492.47;6151594;23;20333;-76
2022/12/02 01:16:05;;;;;;;2.85;2.60;;;;;;;0.18;100.00;100483.56;6149460;23;20092;-77
2022/12/02 01:18:31;;;;;;;3.80;3.47;;;;;;;0.15;100.00;100492.47;6152551;23;20040;-76
2022/12/02 01:20:56;;;;;;;2.95;2.75;;;;;;;0.12;100.00;100498.66;6150786;23;20001;-76
2022/12/02 01:23:22;;;;;;;2.47;2.28;;;;;;;0.11;100.00;100495.13;6153335;23;20097;-77
2022/12/02 01:25:47;;;;;;;1.75;1.65;;;;;;;0.15;100.00;100504.19;6153215;23;20005;-77
2022/12/02 01:28:14;;;;;;;5.25;2.47;;;;;;;0.14;100.00;100501.78;6151631;23;20013;-77
2022/12/02 01:30:40;;;;;;;4.22;3.00;;;;;;;0.17;100.00;100511.97;6152606;23;20056;-77
2022/12/02 01:33:05;;;;;;;4.90;2.22;;;;;;;0.21;100.00;100512.84;6126923;23;20017;-76
2022/12/02 01:35:31;;;;;;;3.22;3.03;;;;;;;0.23;100.00;100516.03;6151517;23;20013;-76
2022/12/02 01:37:56;;;;;;;3.38;2.85;;;;;;;0.28;100.00;100502.13;6151733;23;20093;-77
2022/12/02 01:40:22;;;;;;;5.20;4.70;;;;;;;0.25;100.00;100497.34;6153705;23;20510;-77
2022/12/02 01:42:48;;;;;;;3.70;2.40;;;;;;;0.18;100.00;100499.94;6128281;23;20013;-77
2022/12/02 01:45:14;;;;;;;3.72;2.92;;;;;;;0.19;100.00;100494.13;6153304;23;20344;-76
2022/12/02 01:47:39;;;;;;;3.15;2.15;;;;;;;0.15;100.00;100500.66;6153492;23;20340;-77
2022/12/02 01:50:07;;;;;;;1.83;1.73;;;;;;;0.09;100.00;100491.94;6154100;23;20014;-77
2022/12/02 01:52:33;;;;;;;3.97;2.10;;;;;;;0.19;100.00;100498.78;6155203;23;20436;-76
2022/12/02 01:54:59;;;;;;;2.13;1.95;;;;;;;0.11;100.00;100497.84;6128333;23;20014;-80
2022/12/02 01:57:28;;;;;;;5.90;2.70;;;;;;;0.10;100.00;100501.72;6128547;23;20060;-77
2022/12/02 01:59:53;;;;;;;1.83;1.73;;;;;;;0.12;100.00;100495.91;6104072;23;20013;-77
2022/12/02 02:02:30;;;;;;;1.02;1.02;;;;;;;0.13;100.00;100492.81;6103797;23;20096;-77
2022/12/02 02:05:00;;;;;;;3.10;2.88;;;;;;;0.16;100.00;100496.78;6103721;23;20024;-76
2022/12/02 02:07:27;;;;;;;2.95;2.55;;;;;;;0.14;100.00;100493.59;6104297;23;20062;-76
2022/12/02 02:09:53;;;;;;;6.15;2.88;;;;;;;0.08;100.00;100481.41;6103859;23;20005;-76
2022/12/02 02:12:19;;;;;;;2.03;1.92;;;;;;;0.13;100.00;100486.56;6128317;23;20096;-77
2022/12/02 02:14:44;;;;;;;8.40;3.40;;;;;;;0.13;100.00;100490.09;6154517;23;20035;-79
2022/12/02 02:17:10;;;;;;;3.33;3.10;;;;;;;0.09;100.00;100491.16;6128104;23;20870;-80
2022/12/02 02:19:39;;;;;;;5.72;3.03;;;;;;;0.11;100.00;100494.31;6151326;23;20073;-80
2022/12/02 02:22:10;;;;;;;4.95;3.70;;;;;;;0.12;100.00;100502.16;6127517;23;19997;-80
2022/12/02 02:24:35;;;;;;;2.08;1.98;;;;;;;0.12;100.00;100493.19;6128563;23;20459;-80
2022/12/02 02:27:01;;;;;;;3.42;3.22;;;;;;;0.10;100.00;100501.72;6154090;23;20009;-80
2022/12/02 02:29:27;;;;;;;3.90;2.47;;;;;;;0.13;100.00;100494.75;6153152;23;20013;-80
2022/12/02 02:31:52;;;;;;;2.85;2.65;;;;;;;0.11;100.00;100486.94;6102383;23;20076;-80
2022/12/02 02:34:18;;;;;;;10.73;8.63;;;;;;;0.15;100.00;100500.66;6153905;23;20044;-76
2022/12/02 02:36:44;;;;;;;5.90;4.15;;;;;;;0.10;100.00;100493.53;6127469;23;20005;-76
2022/12/02 02:39:09;;;;;;;2.28;2.08;;;;;;;0.16;100.00;100492.13;6127620;23;20014;-76
2022/12/02 02:41:35;;;;;;;2.08;1.98;;;;;;;0.14;100.00;100494.41;6128280;23;20036;-77
2022/12/02 02:44:01;;;;;;;4.13;2.60;;;;;;;0.15;100.00;100498.72;6154002;23;20336;-76
2022/12/02 02:46:26;;;;;;;1.00;1.00;;;;;;;0.15;100.00;100493.25;6128289;23;20367;-76
2022/12/02 02:48:52;;;;;;;4.32;3.70;;;;;;;0.16;100.00;100494.06;6128163;23;20014;-76
2022/12/02 02:51:19;;;;;;;3.55;3.22;;;;;;;0.15;100.00;100495.19;6161861;23;20025;-76
2022/12/02 02:53:44;;;;;;;3.80;2.53;;;;;;;0.16;100.00;100491.34;6151479;23;20067;-76
2022/12/02 02:56:12;;;;;;;4.70;4.32;;;;;;;0.20;100.00;100492.19;6152304;23;20013;-77
2022/12/02 02:58:39;;;;;;;4.13;3.53;;;;;;;0.18;100.00;100470.72;6128305;23;20033;-77
2022/12/02 03:01:07;;;;;;;1.75;1.65;;;;;;;0.24;100.00;100485.69;6127671;23;20017;-76
2022/12/02 03:03:39;;;;;;;4.25;3.70;;;;;;;0.27;100.00;100470.53;6152575;23;20067;-77
2022/12/02 03:06:06;;;;;;;1.80;1.70;;;;;;;0.29;100.00;100476.41;6153864;23;20021;-76
2022/12/02 03:08:31;;;;;;;2.88;2.63;;;;;;;0.30;100.00;100478.78;6152023;23;20280;-76
2022/12/02 03:10:59;;;;;;;2.55;2.38;;;;;;;0.30;100.00;100486.16;6152286;23;20283;-76
2022/12/02 03:13:25;;;;;;;1.58;1.48;;;;;;;0.28;100.00;100470.19;6152489;23;20451;-79
2022/12/02 03:15:51;;;;;;;2.22;2.10;;;;;;;0.32;100.00;100481.94;6128359;23;20064;-79
2022/12/02 03:18:17;;;;;;;2.15;1.95;;;;;;;0.32;100.00;100489.34;6152025;23;20010;-80
2022/12/02 03:20:43;;;;;;;1.80;1.70;;;;;;;0.31;100.00;100480.38;6152800;23;20045;-80
2022/12/02 03:23:08;;;;;;;3.17;2.95;;;;;;;0.30;100.00;100483.44;6151558;23;20390;-80
2022/12/02 03:25:34;;;;;;;5.05;3.03;;;;;;;0.35;100.00;100491.34;6152715;23;20048;-80
2022/12/02 03:28:00;;;;;;;3.58;3.30;;;;;;;0.40;100.00;100482.91;6151984;23;20014;-80
2022/12/02 03:30:26;;;;;;;4.25;3.53;;;;;;;0.33;100.00;100474.53;6153903;23;20336;-79
2022/12/02 03:32:52;;;;;;;1.77;1.67;;;;;;;0.31;100.00;100476.84;6152988;23;20010;-80
2022/12/02 03:35:18;;;;;;;4.57;3.78;;;;;;;0.23;100.00;100488.75;6126365;23;20001;-80
2022/12/02 03:37:43;;;;;;;3.85;3.50;;;;;;;0.25;100.00;100487.22;6152076;23;20024;-80
2022/12/02 03:40:09;;;;;;;2.55;2.38;;;;;;;0.16;100.00;100472.22;6150382;23;20012;-79
2022/12/02 03:42:35;;;;;;;4.28;2.40;;;;;;;0.18;100.00;100472.66;6152317;23;20458;-80
2022/12/02 03:45:01;;;;;;;2.50;2.35;;;;;;;0.17;100.00;100468.34;6151660;23;20076;-80
2022/12/02 03:47:26;;;;;;;8.85;2.08;;;;;;;0.20;100.00;100473.09;6151914;23;20016;-80
2022/12/02 03:49:52;;;;;;;3.97;3.60;;;;;;;0.19;100.00;100466.06;6127273;23;20066;-80
2022/12/02 03:52:17;;;;;;;3.40;2.72;;;;;;;0.22;100.00;100465.34;6153167;23;20013;-80
2022/12/02 03:54:43;;;;;;;3.22;2.40;;;;;;;0.22;100.00;100462.59;6153877;23;20013;-80
2022/12/02 03:57:09;;;;;;;8.25;5.40;;;;;;;0.23;100.00;100467.72;6152933;23;20428;-80
2022/12/02 03:59:34;;;;;;;0.70;0.70;;;;;;;0.27;100.00;100462.34;6153615;23;20010;-80
2022/12/02 04:02:00;;;;;;;2.90;2.78;;;;;;;0.27;100.00;100475.97;6152387;23;20010;-80
2022/12/02 04:04:25;;;;;;;4.72;4.28;;;;;;;0.31;100.00;100474.13;6151572;23;20100;-80
2022/12/02 04:06:50;;;;;;;1.85;1.73;;;;;;;0.36;100.00;100476.56;6153310;23;20440;-80
2022/12/02 04:09:16;;;;;;;5.15;2.42;;;;;;;0.33;100.00;100471.81;6153160;23;20072;-81
2022/12/02 04:11:42;;;;;;;4.10;3.20;;;;;;;0.31;100.00;100455.00;6127663;23;20021;-81
2022/12/02 04:14:07;;;;;;;4.15;2.10;;;;;;;0.34;100.00;100463.28;6153348;23;20313;-80
2022/12/02 04:16:32;;;;;;;4.63;4.05;;;;;;;0.35;100.00;100447.69;6153377;23;20451;-80
2022/12/02 04:18:58;;;;;;;4.53;3.30;;;;;;;0.36;100.00;100460.19;6152195;23;20045;-80
2022/12/02 04:21:23;;;;;;;3.33;2.42;;;;;;;0.27;100.00;100457.66;6153341;23;20072;-80
2022/12/02 04:23:51;;;;;;;2.63;2.42;;;;;;;0.27;100.00;100457.66;6153314;23;20016;-81
2022/12/02 04:26:17;;;;;;;3.70;3.30;;;;;;;0.28;100.00;100463.94;6127358;23;20037;-81
2022/12/02 04:28:42;;;;;;;2.30;2.10;;;;;;;0.24;100.00;100463.06;6153130;23;20020;-81
2022/12/02 04:31:08;;;;;;;5.22;2.75;;;;;;;0.26;100.00;100460.75;6151242;23;20005;-81
2022/12/02 04:33:33;;;;;;;2.15;2.05;;;;;;;0.22;100.00;100452.50;6152874;23;20384;-81
2022/12/02 04:35:59;;;;;;;4.10;3.83;;;;;;;0.21;100.00;100456.34;6126670;23;20072;-81
2022/12/02 04:38:25;;;;;;;1.80;1.67;;;;;;;0.27;100.00;100462.34;6153149;23;20096;-80
2022/12/02 04:40:50;;;;;;;2.78;2.33;;;;;;;0.27;100.00;100465.06;6151944;23;20274;-81
2022/12/02 04:43:16;;;;;;;3.30;3.00;;;;;;;0.24;100.00;100457.59;6151994;23;20001;-80
2022/12/02 04:45:41;;;;;;;5.25;3.38;;;;;;;0.32;100.00;100464.78;6151823;23;20013;-80
2022/12/02 04:48:07;;;;;;;5.93;4.88;;;;;;;0.34;100.00;100465.22;6151850;23;20138;-80
2022/12/02 04:50:32;;;;;;;3.90;3.60;;;;;;;0.36;100.00;100471.91;6152104;23;20440;-80
2022/12/02 04:52:58;;;;;;;5.00;4.63;;;;;;;0.36;100.00;100465.66;6153292;23;20017;-80
2022/12/02 04:55:23;;;;;;;3.13;2.90;;;;;;;0.34;100.00;100470.66;6153084;23;20025;-80
2022/12/02 04:57:49;;;;;;;1.40;1.30;;;;;;;0.35;100.00;100466.78;6152664;23;20009;-80
2022/12/02 05:00:15;;;;;;;1.52;1.33;;;;;;;0.33;100.00;100472.59;6126748;23;20014;-80
2022/12/02 05:02:40;;;;;;;2.63;2.28;;;;;;;0.26;100.00;100467.00;6126558;23;20088;-80
2022/12/02 05:05:06;;;;;;;2.63;2.42;;;;;;;0.29;100.00;100470.94;6152140;23;20404;-80
2022/12/02 05:07:32;;;;;;;3.92;2.35;;;;;;;0.25;100.00;100461.88;6127517;23;20012;-80
2022/12/02 05:09:57;;;;;;;3.28;2.15;;;;;;;0.26;100.00;100468.94;6126413;23;20428;-80
2022/12/02 05:12:23;;;;;;;4.57;4.20;;;;;;;0.23;100.00;100466.94;6126768;23;20036;-80
2022/12/02 05:14:50;;;;;;;0.93;0.93;;;;;;;0.23;100.00;100467.72;6155304;23;20419;-80
2022/12/02 05:17:15;;;;;;;1.40;1.40;;;;;;;0.29;100.00;100465.47;6128748;23;20021;-80
2022/12/02 05:19:41;;;;;;;5.25;4.75;;;;;;;0.27;100.00;100473.25;6154098;23;20143;-80
2022/12/02 05:22:06;;;;;;;2.85;2.08;;;;;;;0.24;100.00;100468.50;6154209;23;20137;-80
2022/12/02 05:24:31;;;;;;;3.45;1.98;;;;;;;0.31;100.00;100468.66;6129229;23;20016;-77
2022/12/02 05:26:57;;;;;;;3.10;2.17;;;;;;;0.25;100.00;100472.81;6154552;23;20321;-80
2022/12/02 05:29:23;;;;;;;4.03;3.10;;;;;;;0.24;100.00;100473.97;6154719;23;20045;-80
2022/12/02 05:31:48;;;;;;;2.97;2.78;;;;;;;0.25;100.00;100454.50;6154918;23;20154;-79
2022/12/02 05:34:13;;;;;;;2.13;1.98;;;;;;;0.23;100.00;100467.72;6154559;23;20401;-79
2022/12/02 05:36:39;;;;;;;1.77;1.67;;;;;;;0.24;100.00;100465.78;6153456;23;20100;-79
2022/12/02 05:39:04;;;;;;;2.92;2.28;;;;;;;0.23;100.00;100470.44;6128480;23;20009;-79
2022/12/02 05:41:30;;;;;;;11.27;2.75;;;;;;;0.23;100.00;100469.66;6128113;23;20009;-79
2022/12/02 05:43:56;;;;;;;2.70;2.50;;;;;;;0.17;100.00;100462.88;6153860;23;20433;-79
2022/12/02 05:46:21;;;;;;;2.20;1.88;;;;;;;0.09;100.00;100466.59;6128484;23;20351;-79
2022/12/02 05:48:49;;;;;;;3.67;3.38;;;;;;;0.13;100.00;100470.19;6154007;23;20024;-79
2022/12/02 05:51:19;;;;;;;1.75;1.65;;;;;;;0.15;100.00;100473.38;6133477;23;20333;-79
2022/12/02 05:53:46;;;;;;;2.75;2.65;;;;;;;0.06;100.00;100465.38;6154730;23;20017;-79
2022/12/02 05:56:26;;;;;;;3.60;2.95;;;;;;;0.08;100.00;100473.22;6154645;23;20014;-79
2022/12/02 05:58:52;;;;;;;1.33;1.23;;;;;;;0.12;100.00;100466.69;6152895;23;20060;-79
2022/12/02 06:01:28;;;;;;;6.72;2.70;;;;;;;0.11;100.00;100464.31;6151911;23;20458;-79
2022/12/02 06:03:54;;;;;;;2.78;1.73;;;;;;;0.13;100.00;100479.16;6150586;23;20361;-79
2022/12/02 06:06:23;;;;;;;3.15;2.95;;;;;;;0.13;100.00;100462.81;6150464;23;20009;-79
2022/12/02 06:08:49;;;;;;;4.78;4.47;;;;;;;0.15;100.00;100476.09;6151540;23;20010;-79
2022/12/02 06:11:28;;;;;;;2.83;2.65;;;;;;;0.17;100.00;100473.78;6151290;23;20089;-79
2022/12/02 06:13:56;;;;;;;3.47;2.40;;;;;;;0.15;100.00;100473.38;6152660;23;20403;-79
2022/12/02 06:16:24;;;;;;;2.58;2.22;;;;;;;0.18;100.00;100476.19;6152046;23;20002;-79
2022/12/02 06:18:50;;;;;;;4.68;4.30;;;;;;;0.21;100.00;100477.38;6152557;23;20031;-79
2022/12/02 06:21:19;;;;;;;3.30;3.08;;;;;;;0.24;100.00;100474.75;6152177;23;20014;-79
2022/12/02 06:23:47;;;;;;;2.72;2.50;;;;;;;0.23;100.00;100466.94;6153750;23;20018;-79
2022/12/02 06:26:14;;;;;;;1.85;1.75;;;;;;;0.18;100.00;100481.63;6150541;23;20025;-79
2022/12/02 06:28:41;;;;;;;11.23;4.65;;;;;;;0.10;100.00;100481.81;6150506;23;20013;-79
2022/12/02 06:31:21;;;;;;;2.25;2.15;;;;;;;0.14;100.00;100488.16;6150001;23;20024;-79
2022/12/02 06:33:51;;;;;;;2.45;2.35;;;;;;;0.10;100.00;100490.00;6149053;23;20498;-78
2022/12/02 06:36:22;;;;;;;2.97;2.78;;;;;;;0.13;100.00;100486.56;6151653;23;20013;-79
2022/12/02 06:38:54;;;;;;;1.77;1.67;;;;;;;0.10;100.00;100487.28;6150638;23;20019;-78
2022/12/02 06:41:22;;;;;;;6.78;4.18;;;;;;;0.15;100.00;100492.47;6151460;23;20052;-76
2022/12/02 06:46:33;;;;;;;2.97;2.83;;;;;;;0.11;100.00;100488.88;6151728;23;20014;-76
2022/12/02 06:49:01;;;;;;;7.13;4.10;;;;;;;0.08;100.00;100503.22;6151812;23;20005;-76
2022/12/02 06:51:26;;;;;;;1.95;1.85;;;;;;;0.10;100.00;100490.00;6150630;23;20080;-76
2022/12/02 06:53:52;;;;;;;1.85;1.65;;;;;;;0.13;100.00;100500.19;6153186;23;20339;-76
2022/12/02 06:56:27;;;;;;;2.65;2.47;;;;;;;0.10;100.00;100500.91;6127173;23;20014;-76
2022/12/02 06:59:03;;;;;;;4.70;2.85;;;;;;;0.14;100.00;100507.25;6151682;23;20037;-76
2022/12/02 07:01:37;;;;;;;3.83;3.15;;;;;;;0.15;100.00;100503.38;6152036;23;20023;-76
2022/12/02 07:04:09;;;;;;;2.95;1.95;;;;;;;0.17;100.00;100501.88;6152599;23;20013;-78
2022/12/02 07:06:41;;;;;;;12.32;7.95;;;;;;;0.16;100.00;100508.50;6154450;23;20528;-78
2022/12/02 07:09:36;;;;;;;3.42;2.72;;;;;;;0.13;100.00;100500.19;6154002;23;20092;-79
2022/12/02 07:12:03;;;;;;;6.68;3.92;;;;;;;0.17;100.00;100501.06;6154210;23;20499;-79
2022/12/02 07:14:43;;;;;;;3.60;3.03;;;;;;;0.17;100.00;100501.06;6151903;23;20097;-79
2022/12/02 07:17:29;;;;;;;6.43;5.90;;;;;;;0.17;100.00;100509.25;6153553;23;20329;-79
2022/12/02 07:20:10;;;;;;;5.82;3.05;;;;;;;0.15;100.00;100512.34;6154126;23;20013;-76
2022/12/02 07:23:00;;;;;;;3.08;2.30;;;;;;;0.19;100.00;100498.78;6152351;23;20360;-77
2022/12/02 07:25:41;;;;;;;6.10;3.97;;;;;;;0.22;100.00;100511.72;6152516;23;20025;-77
2022/12/02 07:28:28;;;;;;;3.92;3.33;;;;;;;0.14;100.00;100504.53;6127433;23;20020;-77
2022/12/02 07:30:58;;;;;;;5.90;4.22;;;;;;;0.19;100.00;100515.97;6127757;23;20436;-77
2022/12/02 07:33:23;;;;;;;1.35;1.30;;;;;;;0.19;100.00;100520.63;6151779;23;20084;-77
2022/12/02 07:35:49;;;;;;;3.38;3.08;;;;;;;0.16;100.00;100515.88;6153578;23;20100;-77
2022/12/02 07:38:14;;;;;;;2.95;2.75;;;;;;;0.20;100.00;100514.03;6153247;23;20014;-79
2022/12/02 07:40:41;;;;;;;3.60;3.30;;;;;;;0.23;100.00;100507.84;6151626;23;20444;-78
2022/12/02 07:43:08;;;;;;;4.72;2.88;;;;;;;0.22;100.00;100509.00;6151504;23;20061;-79
2022/12/02 07:45:33;;;;;;;1.98;1.88;;;;;;;0.27;100.00;100514.19;6154061;23;20052;-79
2022/12/02 07:47:59;;;;;;;3.33;3.05;;;;;;;0.23;100.00;100510.56;6152188;23;20392;-79
2022/12/02 07:50:25;;;;;;;3.13;2.92;;;;;;;0.28;100.00;100513.84;6153082;23;20060;-79
2022/12/02 07:52:51;;;;;;;3.05;2.83;;;;;;;0.26;100.00;100520.78;6127737;23;20391;-79
2022/12/02 07:55:16;;;;;;;2.03;1.90;;;;;;;0.30;100.00;100521.63;6153518;23;20013;-79
2022/12/02 07:57:42;;;;;;;8.70;6.10;;;;;;;0.27;100.00;100506.00;6152931;23;20017;-79
2022/12/02 08:00:08;;;;;;;9.65;4.60;;;;;;;0.31;100.00;100518.56;6153559;23;20309;-79
2022/12/02 08:02:40;;;;;;;8.55;4.53;;;;;;;0.32;100.00;100522.09;6153433;23;20090;-79
2022/12/02 08:05:05;;;;;;;4.95;4.25;;;;;;;0.26;100.00;100524.28;6127563;23;20459;-78
2022/12/02 08:07:31;;;;;;;2.83;2.63;;;;;;;0.33;100.00;100526.38;6153036;23;20157;-79
2022/12/02 08:09:56;;;;;;;2.67;2.45;;;;;;;0.26;100.00;100520.78;6153661;23;20005;-78
2022/12/02 08:12:22;;;;;;;4.03;3.75;;;;;;;0.30;100.00;100521.63;6152907;23;20412;-78
2022/12/02 08:14:48;;;;;;;3.67;3.08;;;;;;;0.24;100.00;100512.97;6102202;23;20444;-78
2022/12/02 08:17:13;;;;;;;6.47;5.90;;;;;;;0.26;100.00;100518.03;6077912;23;20013;-79
2022/12/02 08:19:40;;;;;;;4.03;3.35;;;;;;;0.32;100.00;100514.69;6153191;23;20029;-78
2022/12/02 08:22:06;;;;;;;3.97;3.70;;;;;;;0.37;100.00;100513.59;6153683;23;20018;-79
2022/12/02 08:24:32;;;;;;;5.82;2.85;;;;;;;0.29;100.00;100509.94;6126554;23;20116;-79
2022/12/02 08:26:57;;;;;;;5.13;4.63;;;;;;;0.24;100.00;100509.44;6127672;23;20041;-79
2022/12/02 08:29:23;;;;;;;3.70;2.28;;;;;;;0.18;100.00;100513.56;6152423;23;20424;-79
2022/12/02 08:31:48;;;;;;;2.95;2.75;;;;;;;0.20;100.00;100522.22;6153497;23;20096;-79
2022/12/02 08:34:17;;;;;;;4.90;4.53;;;;;;;0.19;100.00;100521.41;6153392;23;20024;-79
2022/12/02 08:36:42;;;;;;;3.30;3.00;;;;;;;0.16;100.00;100524.06;6153514;23;20060;-79
2022/12/02 08:39:08;;;;;;;4.65;4.25;;;;;;;0.28;100.00;100534.88;6153179;23;20009;-79
2022/12/02 08:41:34;;;;;;;3.90;3.60;;;;;;;0.29;100.00;100536.44;6153114;23;20009;-79
2022/12/02 08:44:00;;;;;;;3.88;2.60;;;;;;;0.32;100.00;100541.19;6151764;23;20005;-79
2022/12/02 08:46:28;;;;;;;3.15;2.85;;;;;;;0.31;100.00;100534.94;6150338;23;20024;-79
2022/12/02 08:48:54;;;;;;;1.55;1.48;;;;;;;0.33;100.00;100542.75;6152011;23;20017;-79
2022/12/02 08:51:19;;;;;;;6.97;4.03;;;;;;;0.27;100.00;100520.44;6152488;23;20013;-79
2022/12/02 08:53:45;;;;;;;6.43;4.60;;;;;;;0.30;100.00;100524.38;6127250;23;20300;-79
2022/12/02 08:56:10;;;;;;;6.05;3.72;;;;;;;0.27;100.00;100534.06;6102563;23;20510;-77
2022/12/02 08:58:36;;;;;;;2.97;2.65;;;;;;;0.24;100.00;100517.63;6152647;23;20352;-77
2022/12/02 09:01:02;;;;;;;5.43;4.95;;;;;;;0.27;100.00;100527.81;6127238;23;20348;-77
2022/12/02 09:03:27;;;;;;;2.22;2.13;;;;;;;0.29;100.00;100536.44;6126186;23;20001;-77
2022/12/02 09:05:53;;;;;;;2.95;2.75;;;;;;;0.30;100.00;100529.81;6152784;23;20013;-77
2022/12/02 09:08:18;;;;;;;2.97;2.78;;;;;;;0.21;100.00;100529.22;6126620;23;20024;-76
2022/12/02 09:10:44;;;;;;;3.10;2.88;;;;;;;0.18;100.00;100521.75;6152937;23;20012;-77
2022/12/02 09:13:09;;;;;;;4.28;3.83;;;;;;;0.23;100.00;100530.47;6102757;23;20340;-77
2022/12/02 09:15:35;;;;;;;2.63;2.50;;;;;;;0.17;100.00;100517.44;6152985;23;20544;-78
2022/12/02 09:18:00;;;;;;;3.78;3.47;;;;;;;0.21;100.00;100526.50;6152597;23;20018;-78
2022/12/02 09:20:26;;;;;;;1.88;1.65;;;;;;;0.21;100.00;100523.78;6152442;23;20017;-78
2022/12/02 09:22:51;;;;;;;4.82;4.43;;;;;;;0.17;100.00;100525.63;6151933;23;20447;-78
2022/12/02 09:25:17;;;;;;;2.25;2.03;;;;;;;0.13;100.00;100527.47;6152943;23;20380;-78
2022/12/02 09:27:42;;;;;;;5.22;3.30;;;;;;;0.10;100.00;100520.00;6153112;23;20009;-78
2022/12/02 09:30:09;;;;;;;5.93;4.10;;;;;;;0.15;100.00;100527.94;6152940;23;20020;-78
2022/12/02 09:32:34;;;;;;;5.68;1.98;;;;;;;0.21;100.00;100526.50;6126681;23;20432;-76
2022/12/02 09:35:00;;;;;;;6.10;4.28;;;;;;;0.21;100.00;100507.41;6126908;23;20059;-79
2022/12/02 09:37:26;;;;;;;7.38;4.13;;;;;;;0.21;100.00;100523.78;6152241;23;20092;-79
2022/12/02 09:39:51;;;;;;;1.15;1.15;;;;;;;0.22;100.00;100519.91;6152717;23;20440;-78
2022/12/02 09:42:17;;;;;;;4.90;4.43;;;;;;;0.19;100.00;100520.63;6152742;23;20005;-79
2022/12/02 09:44:43;;;;;;;2.95;2.70;;;;;;;0.19;100.00;100526.88;6126847;23;20105;-80
2022/12/02 09:47:09;;;;;;;9.57;5.82;;;;;;;0.23;100.00;100516.03;6152287;23;20339;-80
2022/12/02 09:49:35;;;;;;;3.17;1.95;;;;;;;0.22;100.00;100517.97;6126085;23;20013;-80
2022/12/02 09:52:03;;;;;;;1.40;1.35;;;;;;;0.22;100.00;100519.91;6139544;23;20009;-80
2022/12/02 09:54:29;;;;;;;2.72;2.53;;;;;;;0.26;100.00;100509.84;6151151;23;20498;-80
2022/12/02 09:56:55;;;;;;;3.03;2.25;;;;;;;0.30;100.00;100513.47;6151209;23;20018;-80
2022/12/02 09:59:21;;;;;;;2.10;2.00;;;;;;;0.30;100.00;100513.47;6152303;23;20010;-81
2022/12/02 10:01:47;;;;;;;2.25;1.42;;;;;;;0.32;100.00;100513.91;6154041;23;20024;-81
2022/12/02 10:04:16;;;;;;;3.75;3.50;;;;;;;0.35;100.00;100503.06;6127885;23;20417;-81
2022/12/02 10:06:42;;;;;;;3.17;1.75;;;;;;;0.27;100.00;100511.44;6153042;23;20006;-81
2022/12/02 10:09:14;;;;;;;2.15;1.90;;;;;;;0.28;100.00;100508.38;6154349;23;20084;-81
2022/12/02 10:11:39;;;;;;;1.88;1.77;;;;;;;0.35;100.00;100505.00;6153173;23;20452;-81
2022/12/02 10:14:05;;;;;;;2.28;2.10;;;;;;;0.31;100.00;100506.84;6154558;23;20047;-81
2022/12/02 10:16:32;;;;;;;1.90;1.80;;;;;;;0.36;100.00;100514.78;6154341;23;20005;-81
2022/12/02 10:19:00;;;;;;;1.27;1.17;;;;;;;0.35;100.00;100513.19;6152775;23;20020;-81
2022/12/02 10:21:26;;;;;;;1.20;1.00;;;;;;;0.35;100.00;100507.72;6152895;23;20021;-81
2022/12/02 10:24:00;;;;;;;2.28;1.75;;;;;;;0.34;100.00;100511.59;6152319;23;20448;-81
2022/12/02 10:26:27;;;;;;;3.30;3.10;;;;;;;0.38;100.00;100499.63;6152794;23;20060;-82
2022/12/02 10:29:08;;;;;;;3.42;1.40;;;;;;;0.45;100.00;100507.16;6152656;23;20036;-81
2022/12/02 10:31:34;;;;;;;4.20;2.83;;;;;;;0.46;100.00;100500.56;6154418;23;20092;-82
2022/12/02 10:34:05;;;;;;;8.32;3.35;;;;;;;0.55;100.00;100501.13;6154266;23;20087;-82
2022/12/02 10:36:41;;;;;;;3.30;1.50;;;;;;;0.61;100.00;100510.63;6152680;23;20006;-82
2022/12/02 10:39:29;;;;;;;2.58;2.42;;;;;;;0.64;100.00;100504.47;6153722;23;20519;-82
2022/12/02 10:42:03;;;;;;;3.13;2.90;;;;;;;0.67;100.00;100503.72;6154587;23;20456;-82
2022/12/02 10:44:30;;;;;;;5.93;4.03;;;;;;;0.77;100.00;100503.16;6154034;23;20018;-82
2022/12/02 10:47:17;;;;;;;3.25;2.63;;;;;;;0.77;100.00;100494.94;6128374;23;20009;-82
2022/12/02 10:49:52;;;;;;;3.28;2.15;;;;;;;0.91;100.00;100494.44;6128213;23;20010;-83
2022/12/02 10:52:27;;;;;;;2.90;2.70;;;;;;;0.84;100.00;100483.41;6154151;23;20013;-82
2022/12/02 10:55:11;;;;;;;3.22;2.97;;;;;;;0.98;100.00;100485.59;6131486;23;20024;-82
2022/12/02 10:57:37;;;;;;;3.83;3.00;;;;;;;1.01;100.00;100484.88;6128115;23;20025;-83
2022/12/02 11:00:27;;;;;;;2.75;2.55;;;;;;;0.98;100.00;100482.84;6103627;23;20515;-83
2022/12/02 11:02:54;;;;;;;22.30;3.10;;;;;;;1.08;100.00;100479.56;6127445;23;20017;-83
2022/12/02 11:05:30;;;;;;;2.15;1.98;;;;;;;1.12;100.00;100475.72;6128033;23;20009;-83
2022/12/02 11:08:05;;;;;;;5.43;2.83;;;;;;;1.20;100.00;100477.44;6154354;23;20037;-78
2022/12/02 11:10:39;;;;;;;1.23;1.23;;;;;;;1.29;100.00;100479.94;6153862;23;20444;-83
2022/12/02 11:13:16;;;;;;;3.70;2.92;;;;;;;1.31;100.00;100472.94;6128330;23;20009;-84
2022/12/02 11:15:47;;;;;;;1.85;1.75;;;;;;;1.37;100.00;100473.44;6153964;23;20020;-85
2022/12/02 11:18:22;;;;;;;6.72;1.98;;;;;;;1.39;100.00;100469.19;6128116;23;20092;-84
2022/12/02 11:20:48;;;;;;;3.33;3.10;;;;;;;1.42;100.00;100473.91;6128210;23;20084;-83
2022/12/02 11:23:27;;;;;;;2.67;1.85;;;;;;;1.45;100.00;100472.41;6127058;23;20013;-84
2022/12/02 11:26:05;;;;;;;3.42;3.13;;;;;;;1.51;100.00;100468.19;6154339;23;20010;-83
2022/12/02 11:28:31;;;;;;;2.00;1.85;;;;;;;1.53;100.00;100463.19;6153229;23;20010;-84
2022/12/02 11:31:09;;;;;;;2.75;2.53;;;;;;;1.55;100.00;100471.00;6128177;23;20048;-84
2022/12/02 11:33:47;;;;;;;2.40;2.20;;;;;;;1.49;100.00;100462.31;6153809;23;20013;-84